Time;durP1;ratioP1;P1;durP2;ratioP2;P2;SDS_P1;SDS_P2;PMS_P1;PMS_P2;Temp;Humidity;BMP_temperature;BMP_pressure;BME280_temperature;BME280_humidity;BME280_pressure;Samples;Min_cycle;Max_cycle;Signal;HPM_P1;HPM_P2
2022/05/14 00:01:32;;;;;;;12.23;3.10;;;;;;;15.62;58.39;101949.72;5016249;28;20068;-51
2022/05/14 00:04:00;;;;;;;10.50;3.53;;;;;;;15.62;58.37;101941.47;5022081;28;20049;-48
2022/05/14 00:06:29;;;;;;;11.50;3.47;;;;;;;15.61;58.54;101939.00;5016965;28;20054;-47
2022/05/14 00:09:01;;;;;;;11.85;3.75;;;;;;;15.58;58.39;101939.56;5032453;28;20042;-46
2022/05/14 00:14:15;;;;;;;;;;;;;;;15.58;58.20;101940.38;5025714;28;20038;-47
2022/05/14 00:16:43;;;;;;;10.75;3.78;;;;;;;15.58;58.59;101945.88;5014768;28;19928;-49
2022/05/14 00:19:10;;;;;;;9.07;3.50;;;;;;;15.57;58.38;101944.22;4997223;28;20042;-48
2022/05/14 00:21:38;;;;;;;9.57;3.78;;;;;;;15.55;58.79;101946.41;5008781;28;20042;-48
2022/05/14 00:24:06;;;;;;;12.48;3.97;;;;;;;15.55;58.53;101951.91;5014786;28;20041;-49
2022/05/14 00:26:36;;;;;;;13.18;3.88;;;;;;;15.53;59.20;101949.44;5016345;28;20045;-47
2022/05/14 00:29:05;;;;;;;9.18;3.70;;;;;;;15.46;59.46;101942.56;5033006;28;20045;-50
2022/05/14 00:31:33;;;;;;;11.32;3.85;;;;;;;15.43;59.31;101943.94;5033849;28;20440;-49
2022/05/14 00:34:01;;;;;;;12.93;4.22;;;;;;;15.40;59.56;101947.25;5015450;28;20053;-49
2022/05/14 00:36:28;;;;;;;11.35;3.60;;;;;;;15.40;59.68;101940.94;4999493;28;20451;-47
2022/05/14 00:38:56;;;;;;;11.55;3.67;;;;;;;15.37;59.33;101945.03;5012160;28;20396;-48
2022/05/14 00:41:24;;;;;;;10.88;3.80;;;;;;;15.34;59.02;101940.94;5013222;28;20519;-48
2022/05/14 00:43:55;;;;;;;13.07;4.43;;;;;;;15.31;59.12;101946.13;5016453;28;20116;-49
2022/05/14 00:46:44;;;;;;;11.57;3.63;;;;;;;15.30;58.89;101937.06;5026856;28;20038;-50
2022/05/14 00:49:12;;;;;;;12.60;3.95;;;;;;;15.24;58.98;101935.41;5014961;28;20056;-48
2022/05/14 00:51:42;;;;;;;11.50;4.10;;;;;;;15.24;58.72;101931.84;5000183;28;20096;-49
2022/05/14 00:54:14;;;;;;;11.93;3.38;;;;;;;15.23;58.93;101933.75;5032738;28;20045;-45
2022/05/14 00:56:54;;;;;;;10.50;3.20;;;;;;;15.22;58.93;101932.09;5014959;28;20061;-44
2022/05/14 00:59:24;;;;;;;12.73;3.72;;;;;;;15.21;58.72;101935.13;4998815;28;20099;-48
2022/05/14 01:01:53;;;;;;;10.82;3.28;;;;;;;15.18;58.54;101930.19;5032962;28;20396;-44
2022/05/14 01:04:42;;;;;;;10.13;3.42;;;;;;;15.17;58.31;101929.34;5012229;28;20038;-44
2022/05/14 01:07:32;;;;;;;10.75;3.35;;;;;;;15.17;58.25;101923.03;5004011;28;20072;-47
2022/05/14 01:10:03;;;;;;;12.20;3.35;;;;;;;15.16;57.99;101930.44;4998693;28;20049;-47
2022/05/14 01:12:33;;;;;;;11.98;3.40;;;;;;;15.15;57.79;101931.53;4997693;28;20077;-46
2022/05/14 01:15:18;;;;;;;11.30;3.40;;;;;;;15.13;57.63;101931.00;5012645;28;20100;-47
2022/05/14 01:17:47;;;;;;;9.93;3.38;;;;;;;15.11;57.96;101919.47;5018024;28;20128;-48
2022/05/14 01:20:16;;;;;;;10.05;3.10;;;;;;;15.10;57.67;101923.28;5023427;28;20045;-48
2022/05/14 01:22:59;;;;;;;11.82;3.50;;;;;;;15.08;57.80;101920.84;5031147;28;20092;-50
2022/05/14 01:28:27;;;;;;;9.80;3.25;;;;;;;15.05;57.80;101917.78;5012299;28;20463;-48
2022/05/14 01:31:00;;;;;;;9.70;3.03;;;;;;;15.04;57.44;101924.41;5012027;28;20611;-49
2022/05/14 01:33:31;;;;;;;11.68;3.22;;;;;;;15.02;57.32;101923.84;4992748;28;1089676;-48
2022/05/14 01:35:59;;;;;;;12.07;3.70;;;;;;;14.99;57.05;101927.13;5015671;28;20408;-49
2022/05/14 01:38:27;;;;;;;8.85;3.30;;;;;;;14.97;57.41;101930.13;4998895;28;20144;-51
2022/05/14 01:40:56;;;;;;;8.77;3.00;;;;;;;14.96;57.06;101935.88;5028273;28;20511;-48
2022/05/14 01:43:24;;;;;;;12.57;2.72;;;;;;;14.97;57.03;101935.63;5007411;28;20034;-47
2022/05/14 01:45:52;;;;;;;10.90;3.15;;;;;;;14.94;56.87;101930.69;5012151;28;20120;-50
2022/05/14 01:48:20;;;;;;;10.32;2.90;;;;;;;14.93;56.95;101931.75;4999421;28;20404;-47
2022/05/14 01:50:48;;;;;;;9.77;3.17;;;;;;;14.89;57.05;101934.22;5010102;28;20073;-47
2022/05/14 01:53:17;;;;;;;9.00;3.00;;;;;;;14.86;56.93;101932.03;5024695;28;20046;-47
2022/05/14 01:55:45;;;;;;;12.90;3.20;;;;;;;14.83;57.02;101929.81;5030281;28;20116;-48
2022/05/14 02:01:19;;;;;;;11.02;3.17;;;;;;;14.73;57.47;101935.28;4996296;28;20039;-48
2022/05/14 02:03:53;;;;;;;9.77;3.15;;;;;;;14.73;57.54;101932.53;4997056;28;20073;-48
2022/05/14 02:06:23;;;;;;;9.63;2.80;;;;;;;14.72;57.57;101935.53;5028468;28;20133;-49
2022/05/14 02:08:51;;;;;;;11.15;3.70;;;;;;;14.70;57.41;101939.38;4995745;28;20125;-49
2022/05/14 02:11:21;;;;;;;8.65;3.40;;;;;;;14.69;57.62;101934.16;4980737;28;20056;-49
2022/05/14 02:13:55;;;;;;;9.63;3.63;;;;;;;14.67;57.67;101937.19;5011283;28;20054;-48
2022/05/14 02:16:24;;;;;;;9.43;3.78;;;;;;;14.67;57.70;101937.19;4996880;28;20052;-50
2022/05/14 02:18:52;;;;;;;9.40;3.35;;;;;;;14.66;57.80;101940.19;5011836;28;20041;-49
2022/05/14 02:21:24;;;;;;;10.98;3.65;;;;;;;14.63;57.90;101941.53;5020789;28;20550;-47
2022/05/14 02:23:53;;;;;;;13.85;3.95;;;;;;;14.61;58.17;101943.72;5014653;28;20189;-47
2022/05/14 02:26:22;;;;;;;12.75;3.50;;;;;;;14.61;58.19;101937.41;4995558;28;20045;-46
2022/05/14 02:28:50;;;;;;;11.20;3.40;;;;;;;14.60;58.15;101938.50;5011564;28;20042;-47
2022/05/14 02:31:18;;;;;;;10.98;3.38;;;;;;;14.59;58.24;101945.09;5015441;28;20044;-49
2022/05/14 02:33:45;;;;;;;7.82;3.53;;;;;;;14.56;58.40;101940.97;5032418;28;20045;-49
2022/05/14 02:36:13;;;;;;;11.10;3.85;;;;;;;14.53;58.55;101941.47;5032700;28;20450;-48
2022/05/14 02:38:41;;;;;;;12.23;3.97;;;;;;;14.52;58.54;101944.47;5020420;28;20050;-47
2022/05/14 02:41:10;;;;;;;14.07;3.80;;;;;;;14.51;58.68;101945.56;5002731;28;20045;-47
2022/05/14 02:43:38;;;;;;;12.57;3.65;;;;;;;14.49;58.79;101949.41;5030041;28;20042;-48
2022/05/14 02:46:06;;;;;;;9.00;3.47;;;;;;;14.49;58.75;101948.56;5014998;28;20041;-48
2022/05/14 02:48:35;;;;;;;8.52;3.58;;;;;;;14.47;59.08;101953.50;4998485;28;20065;-45
2022/05/14 02:51:03;;;;;;;12.35;3.95;;;;;;;14.44;59.12;101949.38;4979332;28;20042;-47
2022/05/14 02:53:32;;;;;;;9.57;4.10;;;;;;;14.42;59.19;101948.00;5013107;28;20125;-48
2022/05/14 02:56:00;;;;;;;11.23;3.80;;;;;;;14.39;59.75;101954.00;5014831;28;20064;-48
2022/05/14 03:01:15;;;;;;;;;;;;;;;14.35;59.50;101953.69;5009886;28;20129;-49
2022/05/14 03:03:43;;;;;;;10.70;3.75;;;;;;;14.30;59.86;101948.19;4998654;28;19921;-49
2022/05/14 03:06:11;;;;;;;13.32;4.30;;;;;;;14.28;59.74;101948.44;5015104;28;20045;-51
2022/05/14 03:08:39;;;;;;;11.32;4.00;;;;;;;14.28;59.85;101942.16;5014662;28;20065;-51
2022/05/14 03:11:06;;;;;;;13.05;4.15;;;;;;;14.27;60.03;101943.25;5000720;28;20046;-49
2022/05/14 03:13:34;;;;;;;15.85;4.70;;;;;;;14.24;59.76;101952.84;5014938;28;20092;-47
2022/05/14 03:16:02;;;;;;;11.05;4.03;;;;;;;14.22;60.06;101946.78;5015583;28;20080;-48
2022/05/14 03:18:31;;;;;;;11.00;3.55;;;;;;;14.20;60.05;101956.38;4998627;28;20046;-47
2022/05/14 03:21:00;;;;;;;11.65;4.10;;;;;;;14.18;60.33;101947.56;5014927;28;20042;-51
2022/05/14 03:23:28;;;;;;;14.93;4.32;;;;;;;14.17;60.48;101948.69;5005052;28;20072;-49
2022/05/14 03:25:55;;;;;;;11.45;3.88;;;;;;;14.15;60.52;101945.38;5028887;28;20062;-49
2022/05/14 03:28:23;;;;;;;10.70;3.78;;;;;;;14.16;60.52;101947.00;5014610;28;20454;-50
2022/05/14 03:30:51;;;;;;;12.77;4.18;;;;;;;14.14;60.56;101950.03;5025693;28;20046;-48
2022/05/14 03:33:18;;;;;;;11.38;4.38;;;;;;;14.13;60.55;101942.06;4998089;28;20033;-46
2022/05/14 03:35:46;;;;;;;13.32;4.53;;;;;;;14.10;60.57;101948.09;5018696;28;20077;-48
2022/05/14 03:38:14;;;;;;;10.48;3.97;;;;;;;14.07;60.72;101944.78;5035100;28;20076;-49
2022/05/14 03:40:41;;;;;;;11.27;3.90;;;;;;;14.06;60.72;101942.28;5023353;28;20042;-47
2022/05/14 03:43:09;;;;;;;11.85;3.70;;;;;;;14.04;60.62;101949.94;5013996;28;20038;-49
2022/05/14 03:45:37;;;;;;;11.85;4.50;;;;;;;14.01;61.17;101948.56;5022789;28;20041;-50
2022/05/14 03:48:05;;;;;;;12.57;4.32;;;;;;;13.98;60.58;101951.84;4997926;28;20057;-48
2022/05/14 03:50:33;;;;;;;13.73;4.03;;;;;;;13.94;60.79;101945.22;5004183;28;20599;-50
2022/05/14 03:53:01;;;;;;;12.52;4.00;;;;;;;13.92;60.79;101944.66;5033559;28;20041;-48
2022/05/14 03:55:29;;;;;;;12.30;3.90;;;;;;;13.92;61.05;101947.41;5015554;28;20073;-47
2022/05/14 03:57:57;;;;;;;14.38;4.13;;;;;;;13.89;60.84;101953.41;5033721;28;20041;-47
2022/05/14 04:00:25;;;;;;;13.13;3.75;;;;;;;13.89;60.93;101942.44;5031693;28;20518;-47
2022/05/14 04:02:53;;;;;;;10.73;4.03;;;;;;;13.88;61.30;101939.97;5033621;28;20052;-48
2022/05/14 04:05:21;;;;;;;12.88;4.28;;;;;;;13.90;61.32;101944.09;5016295;28;20045;-49
2022/05/14 04:07:49;;;;;;;13.55;4.20;;;;;;;13.91;61.07;101944.94;5015818;28;20460;-51
2022/05/14 04:10:17;;;;;;;10.80;4.00;;;;;;;13.92;61.36;101947.41;5026339;28;20133;-49
2022/05/14 04:12:46;;;;;;;12.77;4.80;;;;;;;13.91;61.05;101939.47;4982276;28;20528;-49
2022/05/14 04:15:15;;;;;;;9.40;4.38;;;;;;;13.88;61.27;101946.28;4998626;28;20037;-52
2022/05/14 04:17:44;;;;;;;13.73;4.53;;;;;;;13.85;61.40;101941.31;5018197;28;20034;-47
2022/05/14 04:20:12;;;;;;;12.02;4.65;;;;;;;13.80;61.56;101949.50;5021675;28;20125;-47
2022/05/14 04:22:47;;;;;;;12.55;4.65;;;;;;;13.77;61.91;101961.00;4997304;28;20046;-47
2022/05/14 04:25:15;;;;;;;14.68;4.40;;;;;;;13.77;62.08;101958.25;4989081;28;20455;-48
2022/05/14 04:27:45;;;;;;;11.82;4.20;;;;;;;13.77;61.73;101963.72;5009206;28;20045;-47
2022/05/14 04:30:14;;;;;;;10.27;3.97;;;;;;;13.77;61.86;101950.84;5012723;28;20048;-47
2022/05/14 04:32:43;;;;;;;11.23;4.13;;;;;;;13.78;61.69;101963.47;5013398;28;20045;-47
2022/05/14 04:35:13;;;;;;;13.43;4.10;;;;;;;13.76;61.68;101956.59;5017976;28;20430;-49
2022/05/14 04:37:42;;;;;;;12.52;4.20;;;;;;;13.71;62.13;101962.00;5031230;28;20045;-47
2022/05/14 04:40:11;;;;;;;15.90;4.05;;;;;;;13.72;62.15;101966.44;4999675;28;20120;-47
2022/05/14 04:42:40;;;;;;;12.05;4.30;;;;;;;13.73;61.83;101968.06;5027557;28;20042;-50
2022/05/14 04:45:09;;;;;;;13.82;4.15;;;;;;;13.75;61.68;101960.41;5013167;28;20049;-49
2022/05/14 04:47:41;;;;;;;8.48;4.20;;;;;;;13.76;61.84;101968.38;5001381;28;20037;-47
2022/05/14 04:50:11;;;;;;;12.48;4.20;;;;;;;13.77;61.91;101966.47;5015871;28;20038;-47
2022/05/14 04:52:40;;;;;;;12.85;4.28;;;;;;;13.75;61.97;101974.94;5016016;28;20045;-51
2022/05/14 04:55:08;;;;;;;12.48;4.20;;;;;;;13.74;62.26;101972.47;5015876;28;20504;-47
2022/05/14 04:57:40;;;;;;;14.50;5.07;;;;;;;13.75;61.89;101968.63;5005819;28;20038;-47
2022/05/14 05:00:08;;;;;;;11.65;4.07;;;;;;;13.73;62.40;101968.06;5014886;28;20393;-47
2022/05/14 05:05:29;;;;;;;9.85;4.22;;;;;;;13.67;62.47;101977.34;5012514;28;20080;-51
2022/05/14 05:07:57;;;;;;;11.52;4.60;;;;;;;13.71;62.60;101975.72;5007110;28;20119;-48
2022/05/14 05:10:28;;;;;;;14.13;5.30;;;;;;;13.73;62.86;101984.50;5032397;28;20041;-49
2022/05/14 05:12:55;;;;;;;10.80;4.13;;;;;;;13.75;62.40;101979.59;5025498;28;20048;-52
2022/05/14 05:15:23;;;;;;;14.07;4.65;;;;;;;13.75;62.61;101985.06;5016138;28;20037;-49
2022/05/14 05:17:51;;;;;;;10.10;4.05;;;;;;;13.74;62.74;101995.22;5019944;28;20038;-47
2022/05/14 05:20:19;;;;;;;8.98;4.13;;;;;;;13.74;63.19;101994.38;5031853;28;20049;-47
2022/05/14 05:22:48;;;;;;;13.65;4.85;;;;;;;13.76;63.59;101989.47;5021272;28;20124;-51
2022/05/14 05:25:16;;;;;;;10.15;4.38;;;;;;;13.78;63.05;101992.75;5013672;28;20050;-51
2022/05/14 05:27:44;;;;;;;9.23;4.30;;;;;;;13.79;63.06;101997.16;4997422;28;20092;-48
2022/05/14 05:30:12;;;;;;;11.85;4.60;;;;;;;13.78;63.37;101998.22;5013250;28;20052;-49
2022/05/14 05:32:40;;;;;;;12.73;4.88;;;;;;;13.78;63.76;102000.97;5014452;28;20140;-48
2022/05/14 05:35:09;;;;;;;17.60;4.80;;;;;;;13.76;63.67;102000.44;5016255;28;20061;-49
2022/05/14 05:37:44;;;;;;;13.57;5.17;;;;;;;13.79;63.74;102008.13;5015660;28;20037;-51
2022/05/14 05:40:12;;;;;;;14.63;5.07;;;;;;;13.80;63.89;102009.75;5033218;28;20420;-47
2022/05/14 05:42:39;;;;;;;11.68;5.32;;;;;;;13.79;64.21;102008.94;5023579;28;20045;-48
2022/05/14 05:45:08;;;;;;;12.18;4.93;;;;;;;13.79;64.83;102005.38;5029945;28;20041;-49
2022/05/14 05:47:36;;;;;;;13.05;4.70;;;;;;;13.80;64.57;102007.03;5028356;28;20037;-49
2022/05/14 05:50:04;;;;;;;14.93;5.65;;;;;;;13.81;65.03;102006.78;5015514;28;20408;-53
2022/05/14 05:52:34;;;;;;;16.90;5.70;;;;;;;13.80;65.61;102026.19;5014246;28;20059;-47
2022/05/14 05:57:48;;;;;;;17.90;5.85;;;;;;;13.78;65.69;102023.75;5016159;28;20053;-50
2022/05/14 06:00:20;;;;;;;13.57;5.78;;;;;;;13.79;66.14;102021.81;5031907;28;20055;-52
2022/05/14 06:02:49;;;;;;;18.10;6.10;;;;;;;13.81;66.28;102022.38;5032846;28;20439;-51
2022/05/14 06:05:17;;;;;;;16.60;5.88;;;;;;;13.81;66.60;102027.88;5030022;28;20041;-48
2022/05/14 06:07:45;;;;;;;17.20;6.63;;;;;;;13.76;67.12;102036.88;5029296;28;20041;-54
2022/05/14 06:10:15;;;;;;;16.42;6.20;;;;;;;13.72;67.49;102038.47;5031254;28;20037;-50
2022/05/14 06:12:43;;;;;;;16.05;6.35;;;;;;;13.68;68.01;102034.56;5033173;28;20069;-52
2022/05/14 06:15:13;;;;;;;17.83;6.20;;;;;;;13.69;68.52;102029.94;5032029;28;20134;-48
2022/05/14 06:17:43;;;;;;;15.68;6.35;;;;;;;13.73;68.50;102031.06;5030695;28;20041;-46
2022/05/14 06:20:14;;;;;;;20.02;6.43;;;;;;;13.76;68.96;102038.78;4997496;28;20049;-48
2022/05/14 06:22:42;;;;;;;16.63;6.85;;;;;;;13.81;69.06;102044.31;5032605;28;20068;-43
2022/05/14 06:25:10;;;;;;;16.23;7.18;;;;;;;13.84;69.05;102038.31;5012345;28;20037;-49
2022/05/14 06:27:38;;;;;;;17.95;7.50;;;;;;;13.84;69.97;102038.31;5014561;28;20041;-49
2022/05/14 06:30:06;;;;;;;19.40;7.63;;;;;;;13.75;70.08;102024.25;5032428;28;20042;-50
2022/05/14 06:32:34;;;;;;;17.65;6.82;;;;;;;13.77;70.57;102032.22;5016798;28;20046;-49
2022/05/14 06:35:02;;;;;;;23.38;7.65;;;;;;;13.83;70.78;102036.66;5018405;28;20240;-53
2022/05/14 06:37:30;;;;;;;19.45;7.80;;;;;;;13.90;70.50;102047.38;5031008;28;20038;-53
2022/05/14 06:39:57;;;;;;;17.92;7.35;;;;;;;13.85;70.92;102050.91;5017188;28;20049;-51
2022/05/14 06:42:25;;;;;;;15.60;5.93;;;;;;;13.84;71.29;102041.84;5017204;28;20046;-51
2022/05/14 06:44:55;;;;;;;27.08;8.63;;;;;;;13.86;71.73;102041.59;5000396;28;20069;-52
2022/05/14 06:47:23;;;;;;;15.07;6.38;;;;;;;13.90;71.88;102047.38;5008654;28;20076;-46
2022/05/14 06:49:51;;;;;;;18.42;7.82;;;;;;;13.95;72.11;102050.16;5036100;28;20567;-51
2022/05/14 06:52:19;;;;;;;22.15;7.75;;;;;;;13.97;72.02;102059.78;5034639;28;20038;-47
2022/05/14 06:54:50;;;;;;;19.50;7.55;;;;;;;14.01;71.80;102051.88;5009247;28;20042;-47
2022/05/14 06:57:17;;;;;;;23.42;7.60;;;;;;;14.06;72.09;102051.91;4999681;28;20408;-47
2022/05/14 06:59:45;;;;;;;18.52;7.95;;;;;;;14.09;72.37;102045.91;5012214;28;20041;-49
2022/05/14 07:02:15;;;;;;;20.83;7.63;;;;;;;14.12;72.52;102044.53;5035739;28;20053;-49
2022/05/14 07:07:29;;;;;;;19.60;8.13;;;;;;;14.17;72.41;102047.34;5012594;28;20535;-47
2022/05/14 07:09:57;;;;;;;21.65;8.02;;;;;;;14.18;73.21;102035.28;5033072;28;20045;-48
2022/05/14 07:12:25;;;;;;;25.75;8.07;;;;;;;14.23;72.79;102038.06;5035810;28;20408;-49
2022/05/14 07:14:53;;;;;;;18.63;7.90;;;;;;;14.26;72.58;102040.28;5034640;28;20504;-47
2022/05/14 07:17:21;;;;;;;32.40;9.27;;;;;;;14.41;72.98;102042.31;5028053;28;20045;-46
2022/05/14 07:19:49;;;;;;;19.42;7.43;;;;;;;14.41;72.71;102037.66;5022892;28;20112;-48
2022/05/14 07:22:17;;;;;;;17.98;7.22;;;;;;;14.42;72.99;102039.31;5035678;28;20382;-48
2022/05/14 07:24:45;;;;;;;23.05;9.00;;;;;;;14.43;72.99;102045.59;5035255;28;20041;-48
2022/05/14 07:27:13;;;;;;;20.67;8.02;;;;;;;14.38;73.50;102043.69;5025803;28;20045;-47
2022/05/14 07:29:42;;;;;;;21.15;8.25;;;;;;;14.40;73.73;102040.66;5019378;28;20042;-47
2022/05/14 07:32:11;;;;;;;23.05;8.80;;;;;;;14.40;73.85;102041.47;5015441;28;20049;-48
2022/05/14 07:34:39;;;;;;;34.53;10.38;;;;;;;14.49;73.83;102045.38;5015330;28;20076;-50
2022/05/14 07:37:13;;;;;;;20.52;8.60;;;;;;;14.54;73.52;102047.38;5025213;28;20052;-52
2022/05/14 07:39:45;;;;;;;22.65;8.20;;;;;;;14.53;73.36;102045.69;5030849;28;20037;-48
2022/05/14 07:42:23;;;;;;;22.10;8.95;;;;;;;14.49;73.98;102050.88;5033490;28;20059;-49
2022/05/14 07:44:52;;;;;;;21.77;8.82;;;;;;;14.51;74.17;102053.34;5034143;28;20045;-47
2022/05/14 07:47:20;;;;;;;22.77;8.90;;;;;;;14.53;74.26;102061.28;5016413;28;20041;-49
2022/05/14 07:49:48;;;;;;;23.15;8.90;;;;;;;14.54;74.74;102052.03;5015313;28;20049;-53
2022/05/14 07:52:17;;;;;;;23.17;9.70;;;;;;;14.58;74.54;102044.94;5034681;28;20041;-49
2022/05/14 07:54:45;;;;;;;23.33;8.68;;;;;;;14.64;74.23;102054.81;5017468;28;20053;-50
2022/05/14 07:57:12;;;;;;;24.55;9.13;;;;;;;14.68;73.74;102054.03;5034815;28;20550;-50
2022/05/14 07:59:40;;;;;;;18.95;8.65;;;;;;;14.71;73.89;102052.69;5019172;28;20495;-47
2022/05/14 08:02:21;;;;;;;22.50;9.25;;;;;;;14.72;74.16;102057.09;5033903;28;20072;-46
2022/05/14 08:04:48;;;;;;;21.23;7.97;;;;;;;14.81;74.51;102057.41;5034328;28;20076;-49
2022/05/14 08:07:16;;;;;;;22.98;7.97;;;;;;;14.93;74.04;102054.44;5022693;28;20041;-49
2022/05/14 08:09:44;;;;;;;18.98;6.70;;;;;;;15.06;73.26;102057.53;5034399;28;20056;-50
2022/05/14 08:12:11;;;;;;;18.88;6.68;;;;;;;15.18;72.61;102051.00;5034355;28;20073;-49
2022/05/14 08:14:40;;;;;;;18.45;7.07;;;;;;;15.24;71.76;102061.69;5034451;28;20046;-48
2022/05/14 08:17:10;;;;;;;24.52;9.60;;;;;;;15.22;71.40;102063.88;5034232;28;20041;-49
2022/05/14 08:19:38;;;;;;;23.10;8.68;;;;;;;15.19;71.60;102055.38;5012590;28;20057;-47
2022/05/14 08:24:52;;;;;;;21.98;8.38;;;;;;;15.14;72.13;102056.19;5014612;28;20488;-50
2022/05/14 08:27:20;;;;;;;26.10;9.02;;;;;;;15.12;71.60;102061.09;4997110;28;20038;-50
2022/05/14 08:29:48;;;;;;;22.42;8.70;;;;;;;15.11;71.27;102065.78;5014470;28;20048;-50
2022/05/14 08:32:18;;;;;;;27.48;8.98;;;;;;;15.12;71.47;102055.63;5014096;28;20104;-51
2022/05/14 08:34:46;;;;;;;25.65;9.05;;;;;;;15.14;71.76;102056.19;5014092;28;20132;-51
2022/05/14 08:37:15;;;;;;;25.88;9.35;;;;;;;15.19;71.55;102058.94;4983010;28;20563;-48
2022/05/14 08:39:42;;;;;;;30.23;9.15;;;;;;;15.23;71.33;102059.25;5014304;28;20065;-49
2022/05/14 08:42:12;;;;;;;23.23;9.30;;;;;;;15.26;71.21;102065.00;5014458;28;20046;-51
2022/05/14 08:44:42;;;;;;;23.98;9.57;;;;;;;15.29;71.48;102050.72;4996615;28;20049;-48
2022/05/14 08:47:28;;;;;;;23.70;9.32;;;;;;;15.30;71.36;102059.81;5005332;28;20550;-49
2022/05/14 08:49:56;;;;;;;19.60;8.23;;;;;;;15.34;71.24;102061.75;5033873;28;20041;-48
2022/05/14 08:52:39;;;;;;;23.05;8.57;;;;;;;15.39;71.08;102058.19;5018506;28;20050;-49
2022/05/14 08:55:14;;;;;;;20.80;9.13;;;;;;;15.44;70.73;102060.13;5015697;28;20042;-49
2022/05/14 08:57:47;;;;;;;29.42;9.77;;;;;;;15.47;71.02;102054.09;5015915;28;20045;-48
2022/05/14 09:00:16;;;;;;;24.05;9.00;;;;;;;15.51;70.71;102049.69;5016159;28;20038;-47
2022/05/14 09:02:54;;;;;;;28.20;9.63;;;;;;;15.57;70.31;102058.78;5016528;28;20464;-52
2022/05/14 09:05:24;;;;;;;21.77;8.00;;;;;;;15.60;69.94;102053.56;5016127;28;20053;-48
2022/05/14 09:07:51;;;;;;;24.98;9.10;;;;;;;15.67;70.16;102056.88;5027415;28;20046;-49
2022/05/14 09:10:38;;;;;;;22.95;9.48;;;;;;;15.73;69.79;102055.84;5032504;28;20041;-51
2022/05/14 09:13:21;;;;;;;25.80;9.10;;;;;;;15.75;69.64;102052.78;5033480;28;20037;-51
2022/05/14 09:15:51;;;;;;;22.08;8.95;;;;;;;15.75;69.82;102059.13;5030123;28;20037;-46
2022/05/14 09:18:25;;;;;;;24.08;8.35;;;;;;;15.88;69.21;102059.69;5020552;28;20057;-50
2022/05/14 09:21:08;;;;;;;25.33;9.30;;;;;;;15.90;69.14;102060.25;5015619;28;20042;-51
2022/05/14 09:23:43;;;;;;;21.35;8.27;;;;;;;15.93;69.18;102057.78;5015859;28;20049;-49
2022/05/14 09:26:17;;;;;;;18.15;8.15;;;;;;;15.99;68.55;102061.34;5029028;28;20065;-49
2022/05/14 09:28:56;;;;;;;21.38;7.00;;;;;;;16.07;68.44;102049.81;5012550;28;20046;-47
2022/05/14 09:31:36;;;;;;;28.33;9.63;;;;;;;16.11;68.87;102050.88;5032867;28;20045;-50
2022/05/14 09:34:12;;;;;;;25.65;9.45;;;;;;;16.16;68.71;102061.06;5033078;28;20100;-50
2022/05/14 09:36:45;;;;;;;23.27;9.52;;;;;;;16.16;68.00;102061.06;5014530;28;20088;-50
2022/05/14 09:39:18;;;;;;;24.23;8.15;;;;;;;16.22;67.63;102059.16;5028328;28;20053;-50
2022/05/14 09:41:49;;;;;;;21.45;7.43;;;;;;;16.30;67.55;102056.66;5033078;28;20056;-53
2022/05/14 09:44:24;;;;;;;19.70;8.20;;;;;;;16.32;67.89;102053.63;5033394;28;20049;-49
2022/05/14 09:47:03;;;;;;;23.83;8.85;;;;;;;16.33;66.59;102055.28;5014776;28;20045;-52
2022/05/14 09:49:31;;;;;;;25.20;9.63;;;;;;;16.35;67.50;102053.06;5013360;28;20046;-51
2022/05/14 09:52:05;;;;;;;27.90;9.95;;;;;;;16.36;67.42;102054.75;5013290;28;20042;-50
2022/05/14 09:54:43;;;;;;;19.40;7.97;;;;;;;16.37;66.57;102057.19;5013040;28;20052;-50
2022/05/14 09:57:22;;;;;;;23.27;9.48;;;;;;;16.41;67.01;102051.97;5003845;28;20049;-48
2022/05/14 09:59:53;;;;;;;27.52;9.77;;;;;;;16.44;66.70;102051.41;5031274;28;20133;-48
2022/05/14 10:02:42;;;;;;;25.65;9.02;;;;;;;16.43;66.85;102055.28;5032326;28;20052;-48
2022/05/14 10:05:40;;;;;;;23.23;8.70;;;;;;;16.48;65.96;102057.22;5028527;28;20484;-48
2022/05/14 10:08:37;;;;;;;23.55;7.68;;;;;;;16.52;65.61;102048.09;5034986;28;20451;-50
2022/05/14 10:11:18;;;;;;;26.02;9.05;;;;;;;16.56;65.86;102051.13;5037107;28;20085;-49
2022/05/14 10:14:04;;;;;;;29.83;9.13;;;;;;;16.61;65.31;102051.13;5019669;28;20049;-49
2022/05/14 10:16:47;;;;;;;28.13;8.38;;;;;;;16.68;64.91;102053.59;5033355;28;20072;-54
2022/05/14 10:19:36;;;;;;;19.13;8.77;;;;;;;16.75;64.42;102045.84;5036543;28;20055;-47
2022/05/14 10:22:13;;;;;;;24.17;9.55;;;;;;;16.81;64.62;102042.00;5037152;28;20057;-51
2022/05/14 10:27:52;;;;;;;27.00;9.45;;;;;;;16.91;63.87;102050.25;5036040;28;20053;-57
2022/05/14 10:30:25;;;;;;;19.85;8.90;;;;;;;16.98;63.24;102049.91;5036370;28;20048;-49
2022/05/14 10:33:04;;;;;;;20.73;7.38;;;;;;;17.06;62.18;102043.03;4999641;28;20073;-50
2022/05/14 10:35:58;;;;;;;18.17;7.95;;;;;;;17.10;62.12;102046.84;5017450;28;20061;-47
2022/05/14 10:38:41;;;;;;;17.75;7.00;;;;;;;17.19;61.83;102036.91;5031881;28;20056;-49
2022/05/14 10:41:09;;;;;;;20.38;7.13;;;;;;;17.27;60.83;102041.84;5017252;28;20412;-49
2022/05/14 10:44:01;;;;;;;20.38;7.00;;;;;;;17.37;60.58;102035.44;5035128;28;20099;-49
2022/05/14 10:46:29;;;;;;;23.65;7.65;;;;;;;17.45;60.73;102032.91;5001937;28;20045;-52
2022/05/14 10:49:20;;;;;;;18.33;6.53;;;;;;;17.52;59.50;102045.53;5015044;28;20042;-50
2022/05/14 10:51:50;;;;;;;19.45;7.15;;;;;;;17.51;58.84;102043.88;5001982;28;20041;-50
2022/05/14 10:54:25;;;;;;;26.50;8.65;;;;;;;17.54;59.09;102041.41;5035969;28;20116;-49
2022/05/14 10:57:25;;;;;;;23.73;7.53;;;;;;;17.57;58.39;102043.56;5034427;28;20037;-48
2022/05/14 11:00:16;;;;;;;18.63;6.78;;;;;;;17.61;57.95;102035.56;5018180;28;20120;-48
2022/05/14 11:03:02;;;;;;;23.15;6.75;;;;;;;17.67;57.97;102043.50;5016317;28;20045;-50
2022/05/14 11:05:36;;;;;;;22.27;7.00;;;;;;;17.70;59.13;102047.59;5032973;28;20049;-49
2022/05/14 11:08:09;;;;;;;20.05;6.70;;;;;;;17.75;58.45;102042.09;5035794;28;20171;-49
2022/05/14 11:10:36;;;;;;;19.63;6.68;;;;;;;17.81;57.01;102040.13;5033936;28;20522;-49
2022/05/14 11:13:21;;;;;;;22.13;6.72;;;;;;;17.81;56.06;102029.94;5035796;28;20099;-49
2022/05/14 11:15:59;;;;;;;17.38;6.55;;;;;;;17.87;56.18;102045.34;5000997;28;20041;-48
2022/05/14 11:18:27;;;;;;;19.63;6.25;;;;;;;17.94;55.17;102050.50;5032877;28;20120;-49
2022/05/14 11:20:58;;;;;;;21.88;7.88;;;;;;;18.08;55.42;102043.22;5006975;28;20531;-49
2022/05/14 11:23:32;;;;;;;19.35;6.40;;;;;;;18.07;56.01;102038.00;5035022;28;20111;-49
2022/05/14 11:26:06;;;;;;;20.98;6.60;;;;;;;18.06;55.93;102044.63;5026512;28;20500;-49
2022/05/14 11:28:34;;;;;;;21.02;5.85;;;;;;;18.06;55.62;102045.47;5017969;28;20053;-47
2022/05/14 11:31:16;;;;;;;18.88;5.72;;;;;;;18.07;54.82;102043.53;5017190;28;20412;-49
2022/05/14 11:33:45;;;;;;;18.38;5.72;;;;;;;18.11;53.32;102039.06;5015747;28;20034;-50
2022/05/14 11:36:12;;;;;;;18.75;5.28;;;;;;;18.17;52.81;102034.34;5016390;28;20381;-49
2022/05/14 11:38:42;;;;;;;23.17;7.03;;;;;;;18.21;53.18;102061.06;5034263;28;20571;-45
2022/05/14 11:41:12;;;;;;;19.55;6.85;;;;;;;18.20;53.21;102045.59;5022046;28;20038;-48
2022/05/14 11:43:44;;;;;;;17.35;6.13;;;;;;;18.24;53.45;102049.44;4998098;28;20125;-49
2022/05/14 11:46:25;;;;;;;20.90;6.53;;;;;;;18.26;54.04;102047.22;5033282;28;20668;-51
2022/05/14 11:49:11;;;;;;;21.42;6.75;;;;;;;18.29;53.70;102040.28;5024101;28;20038;-51
2022/05/14 11:51:43;;;;;;;24.05;6.85;;;;;;;18.35;55.20;102046.56;5028144;28;20038;-47
2022/05/14 11:54:34;;;;;;;18.55;6.85;;;;;;;18.29;54.33;102052.13;4997982;28;20054;-47
2022/05/14 11:57:03;;;;;;;18.20;5.95;;;;;;;18.26;54.06;102041.69;4997771;28;20403;-46
2022/05/14 11:59:36;;;;;;;18.65;6.85;;;;;;;18.31;53.86;102058.19;5014679;28;20500;-47
2022/05/14 12:02:27;;;;;;;26.75;7.10;;;;;;;18.37;53.67;102052.63;5014968;28;20453;-48
2022/05/14 12:04:57;;;;;;;18.20;6.60;;;;;;;18.41;53.23;102056.44;5025891;28;20046;-48